sensor_id;sensor_type;location;lat;lon;timestamp;P1;durP1;ratioP1;P2;durP2;ratioP2
11044;SDS011;9786;42.714;23.272;2024-03-29T00:00:07;3.77;;;1.73;;
11044;SDS011;9786;42.714;23.272;2024-03-29T00:02:38;3.77;;;1.90;;
11044;SDS011;9786;42.714;23.272;2024-03-29T00:05:05;2.60;;;1.73;;
11044;SDS011;9786;42.714;23.272;2024-03-29T00:07:32;6.93;;;2.33;;
11044;SDS011;9786;42.714;23.272;2024-03-29T00:09:59;2.73;;;1.80;;
11044;SDS011;9786;42.714;23.272;2024-03-29T00:12:26;2.73;;;1.60;;
11044;SDS011;9786;42.714;23.272;2024-03-29T00:14:54;2.87;;;1.67;;
11044;SDS011;9786;42.714;23.272;2024-03-29T00:17:21;2.13;;;1.50;;
11044;SDS011;9786;42.714;23.272;2024-03-29T00:19:48;2.53;;;1.93;;
11044;SDS011;9786;42.714;23.272;2024-03-29T00:22:15;4.73;;;1.63;;
11044;SDS011;9786;42.714;23.272;2024-03-29T00:24:44;4.43;;;1.80;;
11044;SDS011;9786;42.714;23.272;2024-03-29T00:27:12;4.10;;;1.83;;
11044;SDS011;9786;42.714;23.272;2024-03-29T00:29:39;2.80;;;1.50;;
11044;SDS011;9786;42.714;23.272;2024-03-29T00:32:08;2.63;;;2.07;;
11044;SDS011;9786;42.714;23.272;2024-03-29T00:34:34;2.57;;;1.60;;
11044;SDS011;9786;42.714;23.272;2024-03-29T00:37:01;3.50;;;1.60;;
11044;SDS011;9786;42.714;23.272;2024-03-29T00:39:28;3.10;;;1.53;;
11044;SDS011;9786;42.714;23.272;2024-03-29T00:41:55;5.23;;;1.70;;
11044;SDS011;9786;42.714;23.272;2024-03-29T00:44:22;5.20;;;1.80;;
11044;SDS011;9786;42.714;23.272;2024-03-29T00:46:49;2.20;;;1.83;;
11044;SDS011;9786;42.714;23.272;2024-03-29T00:49:17;3.10;;;1.40;;
11044;SDS011;9786;42.714;23.272;2024-03-29T00:51:44;2.40;;;1.63;;
11044;SDS011;9786;42.714;23.272;2024-03-29T00:54:10;1.70;;;1.20;;
11044;SDS011;9786;42.714;23.272;2024-03-29T00:56:37;2.70;;;1.30;;
11044;SDS011;9786;42.714;23.272;2024-03-29T00:59:04;3.73;;;1.50;;
11044;SDS011;9786;42.714;23.272;2024-03-29T01:01:31;2.53;;;1.30;;
11044;SDS011;9786;42.714;23.272;2024-03-29T01:03:58;1.60;;;1.30;;
11044;SDS011;9786;42.714;23.272;2024-03-29T01:06:29;4.07;;;1.50;;
11044;SDS011;9786;42.714;23.272;2024-03-29T01:08:58;3.17;;;1.80;;
11044;SDS011;9786;42.714;23.272;2024-03-29T01:11:25;3.67;;;1.93;;
11044;SDS011;9786;42.714;23.272;2024-03-29T01:13:52;3.70;;;1.60;;
11044;SDS011;9786;42.714;23.272;2024-03-29T01:16:19;2.60;;;1.53;;
11044;SDS011;9786;42.714;23.272;2024-03-29T01:18:46;3.53;;;1.67;;
11044;SDS011;9786;42.714;23.272;2024-03-29T01:21:12;3.23;;;1.60;;
11044;SDS011;9786;42.714;23.272;2024-03-29T01:23:41;5.00;;;1.53;;
11044;SDS011;9786;42.714;23.272;2024-03-29T01:26:08;3.60;;;1.50;;
11044;SDS011;9786;42.714;23.272;2024-03-29T01:28:35;3.30;;;1.30;;
11044;SDS011;9786;42.714;23.272;2024-03-29T01:31:02;2.73;;;1.30;;
11044;SDS011;9786;42.714;23.272;2024-03-29T01:33:30;2.53;;;1.20;;
11044;SDS011;9786;42.714;23.272;2024-03-29T01:35:57;2.60;;;1.73;;
11044;SDS011;9786;42.714;23.272;2024-03-29T01:38:24;3.70;;;1.30;;
11044;SDS011;9786;42.714;23.272;2024-03-29T01:40:54;3.10;;;1.50;;
11044;SDS011;9786;42.714;23.272;2024-03-29T01:43:21;3.67;;;1.60;;
11044;SDS011;9786;42.714;23.272;2024-03-29T01:45:53;3.83;;;1.53;;
11044;SDS011;9786;42.714;23.272;2024-03-29T01:48:23;1.83;;;1.30;;
11044;SDS011;9786;42.714;23.272;2024-03-29T01:50:53;3.17;;;1.70;;
11044;SDS011;9786;42.714;23.272;2024-03-29T01:53:23;3.23;;;1.53;;
11044;SDS011;9786;42.714;23.272;2024-03-29T01:55:54;3.57;;;1.60;;
11044;SDS011;9786;42.714;23.272;2024-03-29T01:58:22;3.17;;;1.53;;
11044;SDS011;9786;42.714;23.272;2024-03-29T02:00:51;4.00;;;1.80;;
11044;SDS011;9786;42.714;23.272;2024-03-29T02:03:22;2.23;;;1.30;;
11044;SDS011;9786;42.714;23.272;2024-03-29T02:05:50;3.60;;;1.47;;
11044;SDS011;9786;42.714;23.272;2024-03-29T02:08:19;3.57;;;1.50;;
11044;SDS011;9786;42.714;23.272;2024-03-29T02:10:50;1.83;;;1.30;;
11044;SDS011;9786;42.714;23.272;2024-03-29T02:13:21;2.07;;;1.40;;
11044;SDS011;9786;42.714;23.272;2024-03-29T02:15:47;1.63;;;1.30;;
11044;SDS011;9786;42.714;23.272;2024-03-29T02:18:16;3.87;;;1.40;;
11044;SDS011;9786;42.714;23.272;2024-03-29T02:20:44;1.50;;;1.37;;
11044;SDS011;9786;42.714;23.272;2024-03-29T02:23:13;2.87;;;1.47;;
11044;SDS011;9786;42.714;23.272;2024-03-29T02:25:46;5.03;;;1.63;;
11044;SDS011;9786;42.714;23.272;2024-03-29T02:28:14;2.80;;;1.33;;
11044;SDS011;9786;42.714;23.272;2024-03-29T02:30:47;2.60;;;1.50;;
11044;SDS011;9786;42.714;23.272;2024-03-29T02:33:16;2.37;;;1.27;;
11044;SDS011;9786;42.714;23.272;2024-03-29T02:35:49;2.60;;;1.50;;
11044;SDS011;9786;42.714;23.272;2024-03-29T02:38:17;4.00;;;1.33;;
11044;SDS011;9786;42.714;23.272;2024-03-29T02:40:47;2.73;;;1.13;;
11044;SDS011;9786;42.714;23.272;2024-03-29T02:43:16;4.43;;;1.50;;
11044;SDS011;9786;42.714;23.272;2024-03-29T02:45:44;2.63;;;1.30;;
11044;SDS011;9786;42.714;23.272;2024-03-29T02:48:15;2.53;;;1.27;;
11044;SDS011;9786;42.714;23.272;2024-03-29T02:50:43;3.27;;;1.30;;
11044;SDS011;9786;42.714;23.272;2024-03-29T02:53:10;2.87;;;1.47;;
11044;SDS011;9786;42.714;23.272;2024-03-29T02:55:38;1.90;;;1.33;;
11044;SDS011;9786;42.714;23.272;2024-03-29T02:58:08;1.73;;;1.57;;
11044;SDS011;9786;42.714;23.272;2024-03-29T03:00:36;1.87;;;1.40;;
11044;SDS011;9786;42.714;23.272;2024-03-29T03:03:03;5.50;;;2.07;;
11044;SDS011;9786;42.714;23.272;2024-03-29T03:05:31;2.73;;;1.57;;
11044;SDS011;9786;42.714;23.272;2024-03-29T03:07:58;2.63;;;1.60;;
11044;SDS011;9786;42.714;23.272;2024-03-29T03:10:47;2.27;;;1.70;;
11044;SDS011;9786;42.714;23.272;2024-03-29T03:13:27;2.23;;;1.23;;
11044;SDS011;9786;42.714;23.272;2024-03-29T03:15:56;3.83;;;1.57;;
11044;SDS011;9786;42.714;23.272;2024-03-29T03:18:24;3.47;;;1.73;;
11044;SDS011;9786;42.714;23.272;2024-03-29T03:20:51;3.73;;;1.60;;
11044;SDS011;9786;42.714;23.272;2024-03-29T03:23:21;3.53;;;1.90;;
11044;SDS011;9786;42.714;23.272;2024-03-29T03:25:53;4.20;;;1.77;;
11044;SDS011;9786;42.714;23.272;2024-03-29T03:28:21;5.77;;;1.80;;
11044;SDS011;9786;42.714;23.272;2024-03-29T03:30:54;3.93;;;1.50;;
11044;SDS011;9786;42.714;23.272;2024-03-29T03:33:22;4.50;;;1.37;;
11044;SDS011;9786;42.714;23.272;2024-03-29T03:35:50;2.53;;;1.70;;
11044;SDS011;9786;42.714;23.272;2024-03-29T03:38:16;3.10;;;1.70;;
11044;SDS011;9786;42.714;23.272;2024-03-29T03:40:44;3.60;;;1.70;;
11044;SDS011;9786;42.714;23.272;2024-03-29T03:43:11;4.60;;;2.27;;
11044;SDS011;9786;42.714;23.272;2024-03-29T03:45:39;3.87;;;1.83;;
11044;SDS011;9786;42.714;23.272;2024-03-29T03:48:08;4.93;;;2.20;;
11044;SDS011;9786;42.714;23.272;2024-03-29T03:50:37;4.60;;;2.03;;
11044;SDS011;9786;42.714;23.272;2024-03-29T03:53:05;2.90;;;1.83;;
11044;SDS011;9786;42.714;23.272;2024-03-29T03:55:35;3.07;;;1.90;;
11044;SDS011;9786;42.714;23.272;2024-03-29T03:58:02;5.00;;;2.90;;
11044;SDS011;9786;42.714;23.272;2024-03-29T04:00:30;3.57;;;1.90;;
11044;SDS011;9786;42.714;23.272;2024-03-29T04:02:57;4.80;;;2.27;;
11044;SDS011;9786;42.714;23.272;2024-03-29T04:05:27;4.23;;;1.87;;
11044;SDS011;9786;42.714;23.272;2024-03-29T04:07:54;3.40;;;1.97;;
11044;SDS011;9786;42.714;23.272;2024-03-29T04:10:22;3.47;;;2.10;;
11044;SDS011;9786;42.714;23.272;2024-03-29T04:12:49;3.10;;;1.70;;
11044;SDS011;9786;42.714;23.272;2024-03-29T04:15:18;3.33;;;1.80;;
11044;SDS011;9786;42.714;23.272;2024-03-29T04:17:44;3.47;;;1.50;;
11044;SDS011;9786;42.714;23.272;2024-03-29T04:20:13;6.20;;;2.03;;
11044;SDS011;9786;42.714;23.272;2024-03-29T04:22:41;5.60;;;2.50;;
11044;SDS011;9786;42.714;23.272;2024-03-29T04:25:10;6.17;;;2.30;;
11044;SDS011;9786;42.714;23.272;2024-03-29T04:27:37;5.37;;;2.20;;
11044;SDS011;9786;42.714;23.272;2024-03-29T04:30:06;4.63;;;2.27;;
11044;SDS011;9786;42.714;23.272;2024-03-29T04:32:33;7.57;;;2.10;;
11044;SDS011;9786;42.714;23.272;2024-03-29T04:35:02;11.07;;;2.53;;
11044;SDS011;9786;42.714;23.272;2024-03-29T04:37:30;21.97;;;15.07;;
11044;SDS011;9786;42.714;23.272;2024-03-29T04:39:59;8.77;;;4.87;;
11044;SDS011;9786;42.714;23.272;2024-03-29T04:42:29;4.27;;;2.10;;
11044;SDS011;9786;42.714;23.272;2024-03-29T04:44:56;16.53;;;12.63;;
11044;SDS011;9786;42.714;23.272;2024-03-29T04:47:26;16.40;;;14.17;;
11044;SDS011;9786;42.714;23.272;2024-03-29T04:49:57;7.90;;;5.00;;
11044;SDS011;9786;42.714;23.272;2024-03-29T04:52:25;5.80;;;4.90;;
11044;SDS011;9786;42.714;23.272;2024-03-29T04:54:53;6.73;;;3.93;;
11044;SDS011;9786;42.714;23.272;2024-03-29T04:57:22;6.10;;;2.13;;
11044;SDS011;9786;42.714;23.272;2024-03-29T04:59:50;3.93;;;2.17;;
11044;SDS011;9786;42.714;23.272;2024-03-29T05:02:18;8.97;;;2.80;;
11044;SDS011;9786;42.714;23.272;2024-03-29T05:04:46;6.67;;;4.30;;
11044;SDS011;9786;42.714;23.272;2024-03-29T05:07:13;4.10;;;2.50;;
11044;SDS011;9786;42.714;23.272;2024-03-29T05:09:42;8.90;;;3.20;;
11044;SDS011;9786;42.714;23.272;2024-03-29T05:12:10;10.37;;;3.47;;
11044;SDS011;9786;42.714;23.272;2024-03-29T05:14:40;7.63;;;2.63;;
11044;SDS011;9786;42.714;23.272;2024-03-29T05:17:08;10.17;;;3.20;;
11044;SDS011;9786;42.714;23.272;2024-03-29T05:19:36;5.43;;;2.63;;
11044;SDS011;9786;42.714;23.272;2024-03-29T05:22:03;5.90;;;2.90;;
11044;SDS011;9786;42.714;23.272;2024-03-29T05:24:32;6.17;;;3.10;;
11044;SDS011;9786;42.714;23.272;2024-03-29T05:26:59;14.27;;;8.40;;
11044;SDS011;9786;42.714;23.272;2024-03-29T05:29:27;24.43;;;9.37;;
11044;SDS011;9786;42.714;23.272;2024-03-29T05:31:57;22.47;;;6.33;;
11044;SDS011;9786;42.714;23.272;2024-03-29T05:34:26;20.00;;;6.07;;
11044;SDS011;9786;42.714;23.272;2024-03-29T05:36:54;20.20;;;7.17;;
11044;SDS011;9786;42.714;23.272;2024-03-29T05:39:22;26.03;;;7.30;;
11044;SDS011;9786;42.714;23.272;2024-03-29T05:41:50;25.53;;;7.87;;
11044;SDS011;9786;42.714;23.272;2024-03-29T05:44:18;23.63;;;6.70;;
11044;SDS011;9786;42.714;23.272;2024-03-29T05:46:46;19.07;;;7.03;;
11044;SDS011;9786;42.714;23.272;2024-03-29T05:49:15;30.27;;;8.17;;
11044;SDS011;9786;42.714;23.272;2024-03-29T05:51:44;20.33;;;6.93;;
11044;SDS011;9786;42.714;23.272;2024-03-29T05:54:11;23.00;;;11.30;;
11044;SDS011;9786;42.714;23.272;2024-03-29T05:56:40;26.97;;;12.67;;
11044;SDS011;9786;42.714;23.272;2024-03-29T05:59:08;28.53;;;15.80;;
11044;SDS011;9786;42.714;23.272;2024-03-29T06:01:38;33.40;;;13.30;;
11044;SDS011;9786;42.714;23.272;2024-03-29T06:04:05;22.47;;;10.83;;
11044;SDS011;9786;42.714;23.272;2024-03-29T06:06:43;25.13;;;11.70;;
11044;SDS011;9786;42.714;23.272;2024-03-29T06:09:11;23.70;;;10.60;;
11044;SDS011;9786;42.714;23.272;2024-03-29T06:11:38;10.53;;;6.43;;
11044;SDS011;9786;42.714;23.272;2024-03-29T06:14:06;12.23;;;6.57;;
11044;SDS011;9786;42.714;23.272;2024-03-29T06:16:51;11.90;;;5.27;;
11044;SDS011;9786;42.714;23.272;2024-03-29T06:19:36;8.73;;;3.37;;
11044;SDS011;9786;42.714;23.272;2024-03-29T06:22:06;6.60;;;4.30;;
11044;SDS011;9786;42.714;23.272;2024-03-29T06:24:37;4.67;;;2.20;;
11044;SDS011;9786;42.714;23.272;2024-03-29T06:27:09;7.37;;;2.07;;
11044;SDS011;9786;42.714;23.272;2024-03-29T06:29:37;4.97;;;2.10;;
11044;SDS011;9786;42.714;23.272;2024-03-29T06:32:05;5.33;;;2.43;;
11044;SDS011;9786;42.714;23.272;2024-03-29T06:34:33;4.57;;;2.37;;
11044;SDS011;9786;42.714;23.272;2024-03-29T06:37:01;3.47;;;2.70;;
11044;SDS011;9786;42.714;23.272;2024-03-29T06:39:35;10.23;;;6.23;;
11044;SDS011;9786;42.714;23.272;2024-03-29T06:42:03;3.93;;;1.93;;
11044;SDS011;9786;42.714;23.272;2024-03-29T06:44:33;8.03;;;4.93;;
11044;SDS011;9786;42.714;23.272;2024-03-29T06:47:01;4.17;;;2.10;;
11044;SDS011;9786;42.714;23.272;2024-03-29T06:49:29;7.40;;;2.37;;
11044;SDS011;9786;42.714;23.272;2024-03-29T06:51:59;4.20;;;1.97;;
11044;SDS011;9786;42.714;23.272;2024-03-29T06:54:27;4.17;;;1.97;;
11044;SDS011;9786;42.714;23.272;2024-03-29T06:56:56;4.40;;;1.63;;
11044;SDS011;9786;42.714;23.272;2024-03-29T06:59:25;4.17;;;2.13;;
11044;SDS011;9786;42.714;23.272;2024-03-29T07:01:53;6.40;;;3.80;;
11044;SDS011;9786;42.714;23.272;2024-03-29T07:04:22;4.80;;;2.70;;
11044;SDS011;9786;42.714;23.272;2024-03-29T07:06:50;4.00;;;2.70;;
11044;SDS011;9786;42.714;23.272;2024-03-29T07:09:19;5.30;;;2.03;;
11044;SDS011;9786;42.714;23.272;2024-03-29T07:11:49;3.87;;;2.00;;
11044;SDS011;9786;42.714;23.272;2024-03-29T07:14:19;3.03;;;2.03;;
11044;SDS011;9786;42.714;23.272;2024-03-29T07:16:50;2.83;;;1.90;;
11044;SDS011;9786;42.714;23.272;2024-03-29T07:19:19;4.23;;;2.27;;
11044;SDS011;9786;42.714;23.272;2024-03-29T07:21:47;4.17;;;1.90;;
11044;SDS011;9786;42.714;23.272;2024-03-29T07:24:18;4.17;;;2.13;;
11044;SDS011;9786;42.714;23.272;2024-03-29T07:26:49;3.27;;;2.07;;
11044;SDS011;9786;42.714;23.272;2024-03-29T07:29:20;5.40;;;2.40;;
11044;SDS011;9786;42.714;23.272;2024-03-29T07:31:50;5.03;;;2.23;;
11044;SDS011;9786;42.714;23.272;2024-03-29T07:34:19;4.23;;;2.40;;
11044;SDS011;9786;42.714;23.272;2024-03-29T07:36:50;4.50;;;2.10;;
11044;SDS011;9786;42.714;23.272;2024-03-29T07:39:50;4.97;;;2.30;;
11044;SDS011;9786;42.714;23.272;2024-03-29T07:42:18;4.13;;;2.40;;
11044;SDS011;9786;42.714;23.272;2024-03-29T07:44:48;2.67;;;2.07;;
11044;SDS011;9786;42.714;23.272;2024-03-29T07:47:20;4.37;;;2.10;;
11044;SDS011;9786;42.714;23.272;2024-03-29T07:49:51;6.03;;;2.20;;
11044;SDS011;9786;42.714;23.272;2024-03-29T07:52:23;2.97;;;1.63;;
11044;SDS011;9786;42.714;23.272;2024-03-29T07:54:55;3.50;;;2.13;;
11044;SDS011;9786;42.714;23.272;2024-03-29T07:57:33;2.30;;;2.10;;
11044;SDS011;9786;42.714;23.272;2024-03-29T08:00:06;3.80;;;1.87;;
11044;SDS011;9786;42.714;23.272;2024-03-29T08:02:36;3.73;;;2.13;;
11044;SDS011;9786;42.714;23.272;2024-03-29T08:05:04;2.97;;;2.00;;
11044;SDS011;9786;42.714;23.272;2024-03-29T08:07:32;2.77;;;1.60;;
11044;SDS011;9786;42.714;23.272;2024-03-29T08:10:00;12.17;;;2.47;;
11044;SDS011;9786;42.714;23.272;2024-03-29T08:12:28;4.00;;;1.97;;
11044;SDS011;9786;42.714;23.272;2024-03-29T08:14:58;3.77;;;1.63;;
11044;SDS011;9786;42.714;23.272;2024-03-29T08:17:28;4.03;;;1.57;;
11044;SDS011;9786;42.714;23.272;2024-03-29T08:19:58;4.33;;;1.53;;
11044;SDS011;9786;42.714;23.272;2024-03-29T08:22:26;3.10;;;1.87;;
11044;SDS011;9786;42.714;23.272;2024-03-29T08:24:54;3.70;;;1.73;;
11044;SDS011;9786;42.714;23.272;2024-03-29T08:27:22;3.50;;;1.83;;
11044;SDS011;9786;42.714;23.272;2024-03-29T08:29:50;3.10;;;1.60;;
11044;SDS011;9786;42.714;23.272;2024-03-29T08:32:18;2.83;;;1.50;;
11044;SDS011;9786;42.714;23.272;2024-03-29T08:34:51;2.93;;;1.50;;
11044;SDS011;9786;42.714;23.272;2024-03-29T08:37:19;2.97;;;1.40;;
11044;SDS011;9786;42.714;23.272;2024-03-29T08:39:50;3.50;;;1.87;;
11044;SDS011;9786;42.714;23.272;2024-03-29T08:42:18;3.50;;;1.83;;
11044;SDS011;9786;42.714;23.272;2024-03-29T08:44:50;3.83;;;1.80;;
11044;SDS011;9786;42.714;23.272;2024-03-29T08:47:31;3.43;;;1.73;;
11044;SDS011;9786;42.714;23.272;2024-03-29T08:50:01;4.13;;;1.93;;
11044;SDS011;9786;42.714;23.272;2024-03-29T08:52:30;3.00;;;1.93;;
11044;SDS011;9786;42.714;23.272;2024-03-29T08:55:00;2.20;;;1.53;;
11044;SDS011;9786;42.714;23.272;2024-03-29T08:57:29;5.17;;;1.90;;
11044;SDS011;9786;42.714;23.272;2024-03-29T08:59:56;4.67;;;1.77;;
11044;SDS011;9786;42.714;23.272;2024-03-29T09:02:25;2.07;;;1.20;;
11044;SDS011;9786;42.714;23.272;2024-03-29T09:04:53;2.70;;;1.80;;
11044;SDS011;9786;42.714;23.272;2024-03-29T09:07:25;6.03;;;3.70;;
11044;SDS011;9786;42.714;23.272;2024-03-29T09:09:53;3.13;;;1.83;;
11044;SDS011;9786;42.714;23.272;2024-03-29T09:12:24;2.57;;;1.43;;
11044;SDS011;9786;42.714;23.272;2024-03-29T09:14:52;2.60;;;1.63;;
11044;SDS011;9786;42.714;23.272;2024-03-29T09:17:23;2.37;;;1.13;;
11044;SDS011;9786;42.714;23.272;2024-03-29T09:19:52;7.10;;;2.83;;
11044;SDS011;9786;42.714;23.272;2024-03-29T09:22:25;3.10;;;1.87;;
11044;SDS011;9786;42.714;23.272;2024-03-29T09:24:53;4.20;;;1.40;;
11044;SDS011;9786;42.714;23.272;2024-03-29T09:27:22;3.47;;;1.80;;
11044;SDS011;9786;42.714;23.272;2024-03-29T09:29:50;4.97;;;1.93;;
11044;SDS011;9786;42.714;23.272;2024-03-29T09:32:22;4.30;;;1.83;;
11044;SDS011;9786;42.714;23.272;2024-03-29T09:34:50;2.40;;;1.50;;
11044;SDS011;9786;42.714;23.272;2024-03-29T09:37:20;3.77;;;1.33;;
11044;SDS011;9786;42.714;23.272;2024-03-29T09:39:51;4.57;;;1.90;;
11044;SDS011;9786;42.714;23.272;2024-03-29T09:42:21;4.23;;;1.57;;
11044;SDS011;9786;42.714;23.272;2024-03-29T09:44:51;5.80;;;3.47;;
11044;SDS011;9786;42.714;23.272;2024-03-29T09:47:23;6.40;;;2.47;;
11044;SDS011;9786;42.714;23.272;2024-03-29T09:49:52;4.13;;;2.43;;
11044;SDS011;9786;42.714;23.272;2024-03-29T09:52:22;4.10;;;2.10;;
11044;SDS011;9786;42.714;23.272;2024-03-29T09:55:01;4.67;;;2.27;;
11044;SDS011;9786;42.714;23.272;2024-03-29T09:57:30;3.70;;;1.80;;
11044;SDS011;9786;42.714;23.272;2024-03-29T10:00:02;3.83;;;1.97;;
11044;SDS011;9786;42.714;23.272;2024-03-29T10:02:34;5.17;;;2.00;;
11044;SDS011;9786;42.714;23.272;2024-03-29T10:05:09;3.17;;;1.53;;
11044;SDS011;9786;42.714;23.272;2024-03-29T10:07:57;4.60;;;1.73;;
11044;SDS011;9786;42.714;23.272;2024-03-29T10:10:32;3.40;;;1.80;;
11044;SDS011;9786;42.714;23.272;2024-03-29T10:13:10;4.63;;;3.30;;
11044;SDS011;9786;42.714;23.272;2024-03-29T10:15:43;9.47;;;4.87;;
11044;SDS011;9786;42.714;23.272;2024-03-29T10:18:21;4.43;;;2.20;;
11044;SDS011;9786;42.714;23.272;2024-03-29T10:20:58;5.30;;;2.63;;
11044;SDS011;9786;42.714;23.272;2024-03-29T10:23:31;5.07;;;2.80;;
11044;SDS011;9786;42.714;23.272;2024-03-29T10:28:57;2.50;;;1.80;;
11044;SDS011;9786;42.714;23.272;2024-03-29T10:31:27;5.30;;;2.00;;
11044;SDS011;9786;42.714;23.272;2024-03-29T10:34:02;3.80;;;1.93;;
11044;SDS011;9786;42.714;23.272;2024-03-29T10:36:31;4.37;;;2.40;;
11044;SDS011;9786;42.714;23.272;2024-03-29T10:39:02;3.97;;;1.80;;
11044;SDS011;9786;42.714;23.272;2024-03-29T10:41:38;3.57;;;2.40;;
11044;SDS011;9786;42.714;23.272;2024-03-29T10:44:08;5.43;;;2.13;;
11044;SDS011;9786;42.714;23.272;2024-03-29T10:46:38;5.03;;;1.83;;
11044;SDS011;9786;42.714;23.272;2024-03-29T10:49:07;3.07;;;1.90;;
11044;SDS011;9786;42.714;23.272;2024-03-29T10:51:38;4.03;;;1.70;;
11044;SDS011;9786;42.714;23.272;2024-03-29T10:54:08;6.47;;;2.13;;
11044;SDS011;9786;42.714;23.272;2024-03-29T10:56:40;3.33;;;1.90;;
11044;SDS011;9786;42.714;23.272;2024-03-29T10:59:12;3.30;;;1.80;;
11044;SDS011;9786;42.714;23.272;2024-03-29T11:01:45;4.30;;;2.00;;
11044;SDS011;9786;42.714;23.272;2024-03-29T11:04:20;3.80;;;1.73;;
11044;SDS011;9786;42.714;23.272;2024-03-29T11:06:54;5.90;;;2.03;;
11044;SDS011;9786;42.714;23.272;2024-03-29T11:09:26;3.60;;;2.43;;
11044;SDS011;9786;42.714;23.272;2024-03-29T11:11:59;4.00;;;2.00;;
11044;SDS011;9786;42.714;23.272;2024-03-29T11:14:29;6.03;;;1.77;;
11044;SDS011;9786;42.714;23.272;2024-03-29T11:17:03;4.63;;;2.00;;
11044;SDS011;9786;42.714;23.272;2024-03-29T11:19:31;3.70;;;1.77;;
11044;SDS011;9786;42.714;23.272;2024-03-29T11:22:01;5.20;;;2.83;;
11044;SDS011;9786;42.714;23.272;2024-03-29T11:24:32;4.57;;;1.93;;
11044;SDS011;9786;42.714;23.272;2024-03-29T11:27:12;5.00;;;1.60;;
11044;SDS011;9786;42.714;23.272;2024-03-29T11:29:42;6.83;;;2.20;;
11044;SDS011;9786;42.714;23.272;2024-03-29T11:32:14;6.43;;;1.83;;
11044;SDS011;9786;42.714;23.272;2024-03-29T11:34:44;4.27;;;1.83;;
11044;SDS011;9786;42.714;23.272;2024-03-29T11:37:17;4.20;;;1.87;;
11044;SDS011;9786;42.714;23.272;2024-03-29T11:39:48;3.20;;;1.87;;
11044;SDS011;9786;42.714;23.272;2024-03-29T11:42:19;4.43;;;2.50;;
11044;SDS011;9786;42.714;23.272;2024-03-29T11:45:04;4.77;;;2.33;;
11044;SDS011;9786;42.714;23.272;2024-03-29T11:47:39;4.10;;;1.90;;
11044;SDS011;9786;42.714;23.272;2024-03-29T11:50:09;5.90;;;2.20;;
11044;SDS011;9786;42.714;23.272;2024-03-29T11:52:38;4.03;;;2.03;;
11044;SDS011;9786;42.714;23.272;2024-03-29T11:55:07;4.37;;;2.27;;
11044;SDS011;9786;42.714;23.272;2024-03-29T11:57:37;2.43;;;1.93;;
11044;SDS011;9786;42.714;23.272;2024-03-29T12:00:06;4.07;;;2.53;;
11044;SDS011;9786;42.714;23.272;2024-03-29T12:02:38;6.60;;;2.60;;
11044;SDS011;9786;42.714;23.272;2024-03-29T12:05:07;4.00;;;1.70;;
11044;SDS011;9786;42.714;23.272;2024-03-29T12:07:36;5.53;;;1.90;;
11044;SDS011;9786;42.714;23.272;2024-03-29T12:10:05;5.77;;;3.03;;
11044;SDS011;9786;42.714;23.272;2024-03-29T12:12:38;6.40;;;2.00;;
11044;SDS011;9786;42.714;23.272;2024-03-29T12:15:08;2.80;;;1.77;;
11044;SDS011;9786;42.714;23.272;2024-03-29T12:17:38;3.87;;;1.63;;
11044;SDS011;9786;42.714;23.272;2024-03-29T12:20:08;3.70;;;1.87;;
11044;SDS011;9786;42.714;23.272;2024-03-29T12:22:38;3.90;;;1.80;;
11044;SDS011;9786;42.714;23.272;2024-03-29T12:25:07;5.17;;;2.73;;
11044;SDS011;9786;42.714;23.272;2024-03-29T12:27:42;3.87;;;2.00;;
11044;SDS011;9786;42.714;23.272;2024-03-29T12:30:12;3.83;;;3.27;;
11044;SDS011;9786;42.714;23.272;2024-03-29T12:32:44;3.33;;;1.60;;
11044;SDS011;9786;42.714;23.272;2024-03-29T12:35:12;3.57;;;1.83;;
11044;SDS011;9786;42.714;23.272;2024-03-29T12:37:47;3.40;;;2.43;;
11044;SDS011;9786;42.714;23.272;2024-03-29T12:40:16;4.73;;;1.87;;
11044;SDS011;9786;42.714;23.272;2024-03-29T12:42:50;4.83;;;2.13;;
11044;SDS011;9786;42.714;23.272;2024-03-29T12:45:18;3.43;;;1.33;;
11044;SDS011;9786;42.714;23.272;2024-03-29T12:47:47;3.47;;;1.47;;
11044;SDS011;9786;42.714;23.272;2024-03-29T12:50:19;7.00;;;1.57;;
11044;SDS011;9786;42.714;23.272;2024-03-29T12:52:53;5.20;;;2.07;;
11044;SDS011;9786;42.714;23.272;2024-03-29T12:55:23;4.83;;;1.63;;
11044;SDS011;9786;42.714;23.272;2024-03-29T12:57:55;2.03;;;1.23;;
11044;SDS011;9786;42.714;23.272;2024-03-29T13:00:26;4.10;;;2.17;;
11044;SDS011;9786;42.714;23.272;2024-03-29T13:02:54;3.77;;;1.83;;
11044;SDS011;9786;42.714;23.272;2024-03-29T13:05:24;4.57;;;1.83;;
11044;SDS011;9786;42.714;23.272;2024-03-29T13:07:53;7.80;;;6.07;;
11044;SDS011;9786;42.714;23.272;2024-03-29T13:10:22;4.43;;;2.93;;
11044;SDS011;9786;42.714;23.272;2024-03-29T13:12:51;4.27;;;1.97;;
11044;SDS011;9786;42.714;23.272;2024-03-29T13:15:21;4.80;;;2.60;;
11044;SDS011;9786;42.714;23.272;2024-03-29T13:17:51;3.93;;;1.67;;
11044;SDS011;9786;42.714;23.272;2024-03-29T13:20:22;4.53;;;1.57;;
11044;SDS011;9786;42.714;23.272;2024-03-29T13:22:50;4.80;;;1.60;;
11044;SDS011;9786;42.714;23.272;2024-03-29T13:25:21;2.13;;;1.73;;
11044;SDS011;9786;42.714;23.272;2024-03-29T13:27:50;4.93;;;2.83;;
11044;SDS011;9786;42.714;23.272;2024-03-29T13:30:21;8.37;;;6.27;;
11044;SDS011;9786;42.714;23.272;2024-03-29T13:32:51;4.70;;;2.10;;
11044;SDS011;9786;42.714;23.272;2024-03-29T13:35:19;6.83;;;2.03;;
11044;SDS011;9786;42.714;23.272;2024-03-29T13:37:49;3.43;;;1.80;;
11044;SDS011;9786;42.714;23.272;2024-03-29T13:40:21;3.60;;;2.50;;
11044;SDS011;9786;42.714;23.272;2024-03-29T13:42:52;3.90;;;1.40;;
11044;SDS011;9786;42.714;23.272;2024-03-29T13:45:24;3.83;;;1.60;;
11044;SDS011;9786;42.714;23.272;2024-03-29T13:47:53;4.70;;;1.50;;
11044;SDS011;9786;42.714;23.272;2024-03-29T13:50:21;4.77;;;1.40;;
11044;SDS011;9786;42.714;23.272;2024-03-29T13:52:53;4.23;;;1.50;;
11044;SDS011;9786;42.714;23.272;2024-03-29T13:55:21;4.53;;;1.67;;
11044;SDS011;9786;42.714;23.272;2024-03-29T13:57:52;8.10;;;4.00;;
11044;SDS011;9786;42.714;23.272;2024-03-29T14:00:21;3.73;;;2.03;;
11044;SDS011;9786;42.714;23.272;2024-03-29T14:02:53;2.97;;;1.97;;
11044;SDS011;9786;42.714;23.272;2024-03-29T14:05:24;3.23;;;2.60;;
11044;SDS011;9786;42.714;23.272;2024-03-29T14:07:52;6.47;;;3.30;;
11044;SDS011;9786;42.714;23.272;2024-03-29T14:10:21;1.57;;;1.00;;
11044;SDS011;9786;42.714;23.272;2024-03-29T14:12:49;2.43;;;1.57;;
11044;SDS011;9786;42.714;23.272;2024-03-29T14:15:19;4.17;;;2.80;;
11044;SDS011;9786;42.714;23.272;2024-03-29T14:17:51;5.87;;;3.77;;
11044;SDS011;9786;42.714;23.272;2024-03-29T14:20:20;5.07;;;4.10;;
11044;SDS011;9786;42.714;23.272;2024-03-29T14:22:48;2.57;;;2.20;;
11044;SDS011;9786;42.714;23.272;2024-03-29T14:25:20;10.33;;;9.23;;
11044;SDS011;9786;42.714;23.272;2024-03-29T14:27:48;4.63;;;2.80;;
11044;SDS011;9786;42.714;23.272;2024-03-29T14:30:27;1.90;;;1.60;;
11044;SDS011;9786;42.714;23.272;2024-03-29T14:32:57;6.13;;;4.33;;
11044;SDS011;9786;42.714;23.272;2024-03-29T14:35:32;3.30;;;1.60;;
11044;SDS011;9786;42.714;23.272;2024-03-29T14:38:00;23.00;;;20.80;;
11044;SDS011;9786;42.714;23.272;2024-03-29T14:40:28;3.60;;;2.10;;
11044;SDS011;9786;42.714;23.272;2024-03-29T14:42:57;3.70;;;3.30;;
11044;SDS011;9786;42.714;23.272;2024-03-29T14:45:25;5.53;;;3.50;;
11044;SDS011;9786;42.714;23.272;2024-03-29T14:47:53;2.33;;;1.50;;
11044;SDS011;9786;42.714;23.272;2024-03-29T14:50:23;3.43;;;2.60;;
11044;SDS011;9786;42.714;23.272;2024-03-29T14:52:52;14.07;;;12.30;;
11044;SDS011;9786;42.714;23.272;2024-03-29T14:55:20;5.90;;;3.17;;
11044;SDS011;9786;42.714;23.272;2024-03-29T14:57:50;5.10;;;3.77;;
11044;SDS011;9786;42.714;23.272;2024-03-29T15:00:19;4.00;;;3.13;;
11044;SDS011;9786;42.714;23.272;2024-03-29T15:02:48;3.67;;;2.43;;